Time;durP1;ratioP1;P1;durP2;ratioP2;P2;SDS_P1;SDS_P2;PMS_P1;PMS_P2;Temp;Humidity;BMP_temperature;BMP_pressure;BME280_temperature;BME280_humidity;BME280_pressure;Samples;Min_cycle;Max_cycle;Signal;HPM_P1;HPM_P2
2023/08/11 00:01:28;;;;;;;3.10;2.90;;;;;;;17.88;87.71;95266.28;5096937;28;20864;-79
2023/08/11 00:03:56;;;;;;;4.00;2.83;;;;;;;17.90;87.52;95264.31;5096957;28;20491;-79
2023/08/11 00:06:25;;;;;;;3.80;3.50;;;;;;;17.85;87.67;95269.28;5097208;28;20444;-79
2023/08/11 00:08:52;;;;;;;3.90;2.93;;;;;;;17.81;88.18;95269.78;5097064;28;20923;-79
2023/08/11 00:11:19;;;;;;;3.80;3.47;;;;;;;17.77;88.20;95263.97;5097440;28;20817;-79
2023/08/11 00:13:46;;;;;;;3.67;3.37;;;;;;;17.70;87.93;95257.69;5097068;28;20444;-79
2023/08/11 00:16:13;;;;;;;3.20;2.90;;;;;;;17.70;88.18;95249.72;5097284;28;20445;-79
2023/08/11 00:18:41;;;;;;;2.90;2.70;;;;;;;17.68;88.22;95257.00;5097306;28;20513;-79
2023/08/11 00:21:09;;;;;;;7.27;3.60;;;;;;;17.67;88.35;95255.34;5097017;28;20483;-79
2023/08/11 00:23:39;;;;;;;4.90;3.53;;;;;;;17.67;87.90;95255.34;5096418;28;20485;-79
2023/08/11 00:26:06;;;;;;;4.30;3.03;;;;;;;17.62;87.42;95244.34;5096128;28;20444;-79
2023/08/11 00:28:32;;;;;;;3.37;3.03;;;;;;;17.59;87.91;95247.31;5096968;28;20448;-78
2023/08/11 00:30:59;;;;;;;6.33;3.33;;;;;;;17.61;87.59;95248.00;5096860;28;20444;-79
2023/08/11 00:33:26;;;;;;;2.97;2.77;;;;;;;17.58;87.07;95245.66;5096861;28;20440;-79
2023/08/11 00:35:56;;;;;;;4.20;3.10;;;;;;;17.55;87.00;95259.28;5096602;28;20475;-79
2023/08/11 00:38:36;;;;;;;3.30;2.50;;;;;;;17.58;86.63;95257.13;5096723;28;20945;-79
2023/08/11 00:41:02;;;;;;;3.73;3.00;;;;;;;17.61;86.91;95255.94;5096619;28;20447;-79
2023/08/11 00:43:29;;;;;;;3.57;3.27;;;;;;;17.60;87.19;95257.78;5096379;28;20495;-79
2023/08/11 00:45:56;;;;;;;7.77;3.00;;;;;;;17.57;87.03;95252.81;5096736;28;20913;-79
2023/08/11 00:48:23;;;;;;;4.30;2.93;;;;;;;17.56;87.21;95260.94;5096249;28;20445;-79
2023/08/11 00:50:50;;;;;;;6.00;2.77;;;;;;;17.58;87.19;95269.56;5095910;28;20448;-79
2023/08/11 00:53:17;;;;;;;4.83;3.17;;;;;;;17.55;86.94;95267.22;5095936;28;20475;-79
2023/08/11 00:55:46;;;;;;;5.73;3.83;;;;;;;17.49;86.87;95267.88;5044086;28;20440;-79
2023/08/11 00:58:13;;;;;;;5.13;3.07;;;;;;;17.46;86.95;95262.91;5096299;28;20940;-79
2023/08/11 01:00:40;;;;;;;3.53;3.20;;;;;;;17.38;87.82;95270.88;5043967;28;20502;-78
2023/08/11 01:03:07;;;;;;;4.57;3.60;;;;;;;17.35;88.28;95264.06;5095750;28;20451;-79
2023/08/11 01:05:38;;;;;;;4.30;3.70;;;;;;;17.32;88.41;95257.22;5043562;28;20773;-79
2023/08/11 01:08:15;;;;;;;11.20;3.80;;;;;;;17.27;88.53;95258.72;5095214;28;20452;-79
2023/08/11 01:10:53;;;;;;;3.23;3.00;;;;;;;17.15;89.40;95255.53;5096175;28;20437;-79
2023/08/11 01:13:20;;;;;;;4.73;3.87;;;;;;;17.16;89.26;95262.50;5095810;28;20942;-79
2023/08/11 01:15:56;;;;;;;3.80;3.50;;;;;;;17.15;89.84;95266.16;5095615;28;20449;-78
2023/08/11 01:18:24;;;;;;;3.87;3.57;;;;;;;17.12;89.83;95266.47;5095175;28;20474;-79
2023/08/11 01:20:55;;;;;;;4.10;3.20;;;;;;;17.07;89.49;95262.66;5095879;28;20449;-79
2023/08/11 01:23:23;;;;;;;3.47;3.27;;;;;;;17.02;89.45;95265.75;5095491;28;20827;-79
2023/08/11 01:25:51;;;;;;;3.83;3.50;;;;;;;16.96;89.76;95247.84;5095538;28;20935;-78
2023/08/11 01:28:18;;;;;;;4.30;3.80;;;;;;;16.98;89.75;95269.72;5095723;28;20444;-79
2023/08/11 01:30:45;;;;;;;3.70;3.40;;;;;;;16.95;89.75;95270.03;5095329;28;20448;-78
2023/08/11 01:33:12;;;;;;;4.67;3.83;;;;;;;16.91;90.12;95269.53;5095558;28;20905;-79
2023/08/11 01:35:39;;;;;;;6.27;4.70;;;;;;;16.91;89.84;95263.41;5095959;28;20432;-79
2023/08/11 01:38:08;;;;;;;4.23;3.90;;;;;;;16.89;89.81;95268.88;5095687;28;20468;-79
2023/08/11 01:40:36;;;;;;;6.50;3.93;;;;;;;16.84;89.91;95263.22;5095253;28;20443;-79
2023/08/11 01:43:05;;;;;;;4.73;4.37;;;;;;;16.79;90.00;95259.41;5094897;28;20450;-79
2023/08/11 01:45:33;;;;;;;3.80;3.50;;;;;;;16.75;90.68;95260.66;5095034;28;20541;-79
2023/08/11 01:48:15;;;;;;;5.93;3.97;;;;;;;16.76;91.03;95259.69;5095454;28;20848;-79
2023/08/11 01:57:55;;;;;;;4.60;3.60;;;;;;;16.63;91.65;95252.97;4877818;29;20552;-78
2023/08/11 02:10:21;;;;;;;6.37;4.10;;;;;;;16.54;92.14;95267.19;4786878;30;20425;-78
2023/08/11 02:12:49;;;;;;;5.60;3.53;;;;;;;16.54;91.88;95264.53;4787250;30;20464;-79
2023/08/11 02:15:16;;;;;;;4.23;3.93;;;;;;;16.52;92.23;95258.56;4772165;30;20828;-79
2023/08/11 02:17:46;;;;;;;4.40;4.10;;;;;;;16.52;91.93;95260.38;4787008;29;20451;-79
2023/08/11 02:20:18;;;;;;;5.90;4.03;;;;;;;16.61;92.13;95262.91;4787265;30;20460;-78
2023/08/11 02:22:46;;;;;;;4.93;3.87;;;;;;;16.63;91.62;95260.94;4787567;30;20464;-79
2023/08/11 02:25:13;;;;;;;7.30;4.07;;;;;;;16.65;91.21;95271.38;4786750;30;20562;-78
2023/08/11 02:27:43;;;;;;;5.97;4.50;;;;;;;16.65;90.92;95274.00;4800252;29;20455;-78
2023/08/11 02:30:13;;;;;;;10.40;4.20;;;;;;;16.62;90.92;95264.56;4832039;29;20489;-79
2023/08/11 02:32:41;;;;;;;7.03;4.40;;;;;;;16.60;91.41;95269.19;4934527;29;20454;-79
2023/08/11 02:35:09;;;;;;;4.70;4.30;;;;;;;16.55;91.63;95274.13;4934143;29;20491;-78
2023/08/11 02:37:36;;;;;;;5.83;4.10;;;;;;;16.58;91.46;95287.06;4887433;29;20999;-79
2023/08/11 02:40:03;;;;;;;5.00;4.53;;;;;;;16.59;90.62;95288.72;4934478;29;20450;-79
2023/08/11 02:42:33;;;;;;;4.53;4.23;;;;;;;16.60;90.89;95287.75;4935912;29;20454;-79
2023/08/11 02:45:00;;;;;;;5.23;4.00;;;;;;;16.59;91.49;95280.78;5040903;28;20492;-79
2023/08/11 02:47:28;;;;;;;7.37;4.30;;;;;;;16.59;90.93;95279.94;5054117;28;20448;-78
2023/08/11 02:49:55;;;;;;;5.23;4.80;;;;;;;16.58;90.52;95284.41;5054070;28;20448;-78
2023/08/11 02:52:21;;;;;;;4.13;3.83;;;;;;;16.60;90.45;95285.09;5054678;28;20449;-79
2023/08/11 02:54:49;;;;;;;5.10;4.70;;;;;;;16.60;90.66;95287.75;5052383;28;20445;-79
2023/08/11 02:57:16;;;;;;;4.63;4.23;;;;;;;16.58;91.11;95287.06;5066064;28;20557;-79
2023/08/11 02:59:44;;;;;;;4.40;3.83;;;;;;;16.56;91.28;95286.41;5093613;28;20471;-79
2023/08/11 03:02:11;;;;;;;10.03;4.90;;;;;;;16.56;90.66;95286.41;5095020;28;20458;-79
2023/08/11 03:04:41;;;;;;;4.23;3.93;;;;;;;16.55;90.59;95289.22;5094972;28;20483;-79
2023/08/11 03:07:09;;;;;;;5.10;4.60;;;;;;;16.56;90.02;95286.41;5112113;28;20443;-81
2023/08/11 03:09:36;;;;;;;6.00;5.40;;;;;;;16.52;90.42;95287.69;5115465;28;20541;-80
2023/08/11 03:12:03;;;;;;;5.83;5.07;;;;;;;16.50;90.71;95289.69;5097752;28;20439;-79
2023/08/11 03:14:30;;;;;;;7.00;5.20;;;;;;;16.46;90.37;95285.66;5095084;28;20442;-79
2023/08/11 03:16:57;;;;;;;4.90;4.40;;;;;;;17.29;97.34;95286.72;5043030;28;20470;-84
2023/08/11 03:19:24;;;;;;;6.43;4.43;;;;;;;17.47;91.36;95291.09;5094293;28;20436;-78
2023/08/11 03:21:52;;;;;;;7.23;4.40;;;;;;;17.31;87.70;95295.34;5093371;28;20470;-76
2023/08/11 03:24:19;;;;;;;4.80;4.27;;;;;;;17.20;87.52;95295.66;5092978;28;20482;-79
2023/08/11 03:26:46;;;;;;;9.20;4.77;;;;;;;17.10;87.26;95294.16;5042445;28;20444;-78
2023/08/11 03:29:13;;;;;;;10.13;4.60;;;;;;;17.02;89.33;95295.75;5094038;28;20434;-78
2023/08/11 03:31:39;;;;;;;9.47;6.00;;;;;;;16.98;92.91;95298.88;5097729;28;20463;-77
2023/08/11 03:34:06;;;;;;;7.63;5.30;;;;;;;17.02;99.94;95292.28;5097686;28;20440;-79
2023/08/11 03:36:33;;;;;;;8.80;4.80;;;;;;;17.09;94.01;95298.63;5108281;28;20462;-77
2023/08/11 03:39:01;;;;;;;4.90;4.40;;;;;;;17.00;90.86;95304.84;5117752;28;20439;-78
2023/08/11 03:41:28;;;;;;;11.07;5.33;;;;;;;16.96;90.57;95299.03;5118006;28;20443;-77
2023/08/11 03:43:55;;;;;;;5.87;5.37;;;;;;;16.89;89.80;95307.81;5117019;28;20442;-77
2023/08/11 03:46:22;;;;;;;10.73;5.43;;;;;;;16.84;90.02;95310.09;5118096;28;20481;-81
2023/08/11 03:48:49;;;;;;;5.07;4.67;;;;;;;16.74;89.86;95299.59;5117816;28;20438;-77
2023/08/11 03:51:16;;;;;;;9.63;4.90;;;;;;;16.70;89.92;95301.72;5117914;28;20440;-78
2023/08/11 03:53:43;;;;;;;16.40;5.10;;;;;;;16.66;89.82;95296.91;5118414;28;20475;-78
2023/08/11 03:56:11;;;;;;;5.53;5.00;;;;;;;16.61;89.70;95294.69;5103718;28;21016;-78
2023/08/11 03:58:38;;;;;;;7.37;5.60;;;;;;;16.63;89.94;95310.44;5097306;28;20458;-78
2023/08/11 04:01:05;;;;;;;5.30;4.60;;;;;;;16.58;90.35;95310.91;5097389;28;20455;-78
2023/08/11 04:03:32;;;;;;;5.70;4.83;;;;;;;16.62;90.35;95304.31;5097419;28;20475;-78
2023/08/11 04:05:59;;;;;;;4.90;4.40;;;;;;;16.80;90.53;95308.75;5096433;28;21014;-78
2023/08/11 04:08:27;;;;;;;4.87;4.53;;;;;;;17.14;89.53;95301.63;5096726;28;20438;-78
2023/08/11 04:10:53;;;;;;;4.20;3.90;;;;;;;17.77;86.79;95301.16;5096514;28;20491;-79
2023/08/11 04:13:22;;;;;;;6.60;5.10;;;;;;;18.52;83.27;95301.81;5096688;28;20942;-78
2023/08/11 04:15:49;;;;;;;9.07;4.17;;;;;;;19.15;79.75;95306.31;5096691;28;20439;-78
2023/08/11 04:18:15;;;;;;;11.20;4.30;;;;;;;19.68;77.10;95306.59;5044594;28;20812;-78
2023/08/11 04:20:42;;;;;;;8.83;3.67;;;;;;;20.40;74.69;95315.06;5096331;28;20445;-79
2023/08/11 04:23:09;;;;;;;4.40;3.87;;;;;;;21.06;71.58;95312.56;5096179;28;20436;-79
2023/08/11 04:25:36;;;;;;;5.23;4.07;;;;;;;21.64;68.75;95317.06;5096325;28;20480;-79
2023/08/11 04:28:03;;;;;;;6.90;4.33;;;;;;;22.15;66.91;95320.53;5096197;28;20441;-78
2023/08/11 04:30:32;;;;;;;5.00;3.97;;;;;;;22.25;66.23;95313.00;5095740;28;20492;-78
2023/08/11 04:32:58;;;;;;;5.00;4.60;;;;;;;22.47;66.04;95321.03;5096386;28;20513;-79
2023/08/11 04:35:26;;;;;;;4.70;4.03;;;;;;;22.77;65.21;95329.69;5095972;28;20522;-79
2023/08/11 04:37:55;;;;;;;4.43;4.03;;;;;;;23.04;63.85;95325.41;5095889;28;20483;-79
2023/08/11 04:40:22;;;;;;;6.03;4.50;;;;;;;22.94;64.14;95331.09;5095996;28;20854;-78
2023/08/11 04:42:49;;;;;;;6.40;3.70;;;;;;;23.00;63.66;95335.66;5096042;28;20473;-79
2023/08/11 04:45:16;;;;;;;6.30;4.33;;;;;;;23.09;63.61;95328.31;5095762;28;20482;-79
2023/08/11 04:47:44;;;;;;;4.57;4.20;;;;;;;23.17;62.21;95331.69;5095898;28;20504;-78
2023/08/11 04:50:12;;;;;;;10.17;4.77;;;;;;;22.54;64.93;95325.41;5060023;28;20434;-79
2023/08/11 04:52:39;;;;;;;14.43;5.00;;;;;;;22.37;66.40;95326.72;5095600;28;20546;-78
2023/08/11 04:55:07;;;;;;;5.90;4.93;;;;;;;22.59;66.48;95326.69;5095471;28;20455;-78
2023/08/11 04:57:34;;;;;;;7.80;4.97;;;;;;;22.83;65.81;95324.44;5060620;28;20488;-78
2023/08/11 05:00:01;;;;;;;12.70;5.87;;;;;;;23.09;65.39;95337.16;5095639;28;20439;-78
2023/08/11 05:02:28;;;;;;;6.30;5.43;;;;;;;23.26;63.87;95332.34;5095817;28;20500;-78
2023/08/11 05:04:56;;;;;;;6.87;4.97;;;;;;;23.27;64.56;95331.31;5095869;28;21013;-79
2023/08/11 05:07:23;;;;;;;7.60;6.03;;;;;;;23.51;63.98;95334.53;5095785;28;20442;-78
2023/08/11 05:10:03;;;;;;;9.27;6.40;;;;;;;23.78;63.19;95326.44;5095872;28;20451;-78
2023/08/11 05:12:31;;;;;;;12.10;6.10;;;;;;;24.10;62.84;95337.44;5095901;28;20479;-78
2023/08/11 05:14:58;;;;;;;9.80;5.37;;;;;;;24.46;61.21;95331.75;5043815;28;20460;-79
2023/08/11 05:17:27;;;;;;;11.40;5.30;;;;;;;24.72;60.70;95320.22;5060236;28;20471;-79
2023/08/11 05:19:53;;;;;;;9.73;5.20;;;;;;;24.98;59.87;95325.59;5095827;28;20811;-78
2023/08/11 05:22:23;;;;;;;6.70;4.87;;;;;;;25.08;58.88;95338.59;5094977;28;20462;-78
2023/08/11 05:24:50;;;;;;;8.90;5.22;;;;;;;25.00;58.60;95333.44;5093742;28;20525;-78
2023/08/11 05:27:17;;;;;;;10.13;5.23;;;;;;;24.96;59.89;95330.31;5095043;28;20209;-78
2023/08/11 05:29:47;;;;;;;5.90;5.40;;;;;;;24.94;58.49;95332.38;5095042;28;20450;-78
2023/08/11 05:32:13;;;;;;;7.77;5.10;;;;;;;24.87;59.41;95338.81;5094888;28;20439;-78
2023/08/11 05:34:40;;;;;;;19.03;6.00;;;;;;;25.01;59.76;95340.47;5059394;28;20870;-78
2023/08/11 05:37:07;;;;;;;5.30;4.80;;;;;;;25.11;59.09;95340.84;5095003;28;20455;-79
2023/08/11 05:39:37;;;;;;;13.50;4.60;;;;;;;25.30;58.73;95342.69;5095520;28;20471;-79
2023/08/11 05:42:04;;;;;;;5.87;4.60;;;;;;;25.54;57.09;95345.72;5095275;28;20800;-79
2023/08/11 05:44:31;;;;;;;5.23;4.67;;;;;;;25.70;56.71;95339.06;5095356;28;20466;-79
2023/08/11 05:47:00;;;;;;;7.97;4.63;;;;;;;25.88;56.60;95340.03;5094997;28;20448;-77
2023/08/11 05:49:27;;;;;;;6.13;3.97;;;;;;;25.90;56.45;95340.66;5042687;28;20450;-79
2023/08/11 05:51:56;;;;;;;5.73;4.07;;;;;;;26.08;55.91;95339.13;5094769;28;20444;-78
2023/08/11 05:54:23;;;;;;;5.40;5.00;;;;;;;26.07;55.92;95342.88;5094895;28;20451;-78
2023/08/11 05:56:52;;;;;;;5.37;4.83;;;;;;;26.03;56.02;95347.03;5094215;28;20444;-78
2023/08/11 05:59:21;;;;;;;4.93;3.90;;;;;;;25.89;56.76;95339.00;5094933;28;20489;-79
2023/08/11 06:01:48;;;;;;;4.60;4.30;;;;;;;25.96;56.49;95346.22;5094445;28;20486;-78
2023/08/11 06:04:17;;;;;;;5.23;4.73;;;;;;;25.66;57.50;95348.59;5094527;28;20445;-79
2023/08/11 06:06:44;;;;;;;4.97;4.00;;;;;;;25.29;58.57;95351.78;5058463;28;20487;-78
2023/08/11 06:09:11;;;;;;;5.03;4.33;;;;;;;24.91;59.87;95345.41;5094501;28;20469;-78
2023/08/11 06:11:38;;;;;;;4.47;4.07;;;;;;;25.26;59.90;95349.53;5094617;28;20921;-78
2023/08/11 06:14:06;;;;;;;4.90;4.40;;;;;;;25.54;58.29;95345.72;5094097;28;20440;-78
2023/08/11 06:16:33;;;;;;;8.37;3.97;;;;;;;25.51;57.90;95352.38;5094354;28;21003;-78
2023/08/11 06:19:02;;;;;;;8.60;3.47;;;;;;;25.56;57.74;95351.72;5042108;28;20859;-78
2023/08/11 06:21:28;;;;;;;5.03;3.93;;;;;;;25.74;58.41;95356.47;5094394;28;20479;-79
2023/08/11 06:23:55;;;;;;;12.73;4.77;;;;;;;25.94;57.14;95360.69;5094257;28;20945;-78
2023/08/11 06:26:23;;;;;;;5.57;5.10;;;;;;;25.92;57.89;95359.25;5094754;28;20482;-78
2023/08/11 06:28:51;;;;;;;5.70;5.20;;;;;;;25.88;58.02;95360.75;5043481;28;20926;-78
2023/08/11 06:31:20;;;;;;;4.87;3.67;;;;;;;26.18;57.48;95359.13;5094256;28;20415;-78
2023/08/11 06:33:47;;;;;;;5.07;4.47;;;;;;;26.48;56.42;95363.97;5094338;28;20444;-78
2023/08/11 06:36:14;;;;;;;5.00;4.50;;;;;;;26.57;55.56;95369.91;5094474;28;20565;-79
2023/08/11 06:38:41;;;;;;;9.47;4.47;;;;;;;26.60;55.93;95362.25;5093800;28;20501;-78
2023/08/11 06:41:07;;;;;;;6.37;5.53;;;;;;;26.65;56.54;95358.91;5094379;28;20444;-76
2023/08/11 06:43:38;;;;;;;9.00;5.70;;;;;;;26.77;56.81;95362.53;5094128;28;20443;-77
2023/08/11 06:46:05;;;;;;;7.93;4.83;;;;;;;27.00;55.32;95367.34;5094432;28;20476;-76
2023/08/11 06:48:35;;;;;;;9.90;5.43;;;;;;;27.14;55.08;95363.47;5093535;28;20443;-77
2023/08/11 06:51:02;;;;;;;10.50;5.20;;;;;;;27.28;54.41;95367.72;5094183;28;20969;-77
2023/08/11 06:53:28;;;;;;;5.80;4.27;;;;;;;27.27;53.53;95366.06;5095266;28;20501;-77
2023/08/11 06:55:55;;;;;;;8.87;5.00;;;;;;;26.99;55.64;95355.75;5094182;28;21025;-76
2023/08/11 06:58:22;;;;;;;6.43;4.13;;;;;;;27.26;53.23;95364.41;5094354;28;20478;-77
2023/08/11 07:00:48;;;;;;;4.90;4.37;;;;;;;27.55;53.20;95357.47;5042641;28;20436;-78
2023/08/11 07:03:14;;;;;;;8.30;4.43;;;;;;;27.70;51.97;95366.03;5093323;28;20447;-76
2023/08/11 07:05:43;;;;;;;7.50;3.70;;;;;;;27.59;51.92;95365.94;5096887;28;20226;-77
2023/08/11 07:08:09;;;;;;;7.20;4.57;;;;;;;27.50;51.02;95368.13;5098187;28;20458;-77
2023/08/11 07:10:37;;;;;;;5.10;4.70;;;;;;;27.33;51.97;95370.56;5098210;28;20440;-76
2023/08/11 07:13:04;;;;;;;4.83;4.27;;;;;;;27.15;52.51;95370.50;5097962;28;20455;-77
2023/08/11 07:15:31;;;;;;;7.90;4.40;;;;;;;26.92;52.97;95376.50;5097722;28;20812;-76
2023/08/11 07:17:57;;;;;;;6.60;4.30;;;;;;;26.48;52.51;95367.47;5097852;28;20795;-77
2023/08/11 07:20:24;;;;;;;6.67;4.30;;;;;;;26.55;54.05;95368.25;5097991;28;20452;-78
2023/08/11 07:22:52;;;;;;;7.20;4.50;;;;;;;26.66;53.38;95369.44;5097885;28;20435;-78
2023/08/11 07:25:19;;;;;;;5.40;4.30;;;;;;;26.84;53.18;95374.06;5097321;28;20505;-78
2023/08/11 07:27:46;;;;;;;4.47;4.17;;;;;;;26.80;51.62;95373.69;5097395;28;20470;-78
2023/08/11 07:30:13;;;;;;;4.60;4.20;;;;;;;26.82;52.88;95376.16;5097727;28;20446;-77
2023/08/11 07:32:41;;;;;;;4.17;3.87;;;;;;;26.88;51.61;95371.75;5045722;28;20439;-77
2023/08/11 07:35:08;;;;;;;4.93;4.10;;;;;;;26.61;51.71;95376.53;5097548;28;20493;-78
2023/08/11 07:37:35;;;;;;;6.60;4.63;;;;;;;26.43;53.35;95378.06;5097575;28;20449;-77
2023/08/11 07:40:04;;;;;;;6.33;4.97;;;;;;;26.47;52.84;95370.41;5097597;28;20440;-77
2023/08/11 07:42:31;;;;;;;4.30;4.00;;;;;;;26.73;53.31;95377.47;5078774;28;20492;-78
2023/08/11 07:44:57;;;;;;;4.20;3.73;;;;;;;27.08;53.27;95370.56;5096984;28;20808;-77
2023/08/11 07:47:24;;;;;;;5.93;4.27;;;;;;;27.31;50.03;95366.44;5097751;28;20452;-77
2023/08/11 07:49:51;;;;;;;7.30;4.33;;;;;;;27.48;49.87;95369.41;5096806;28;20451;-77
2023/08/11 07:52:18;;;;;;;6.43;3.80;;;;;;;27.63;50.30;95377.97;5097074;28;20439;-77
2023/08/11 07:54:45;;;;;;;4.00;3.53;;;;;;;27.84;50.55;95376.69;5097316;28;20458;-78
2023/08/11 07:57:13;;;;;;;9.53;4.50;;;;;;;28.06;48.60;95378.72;5097057;28;20479;-78
2023/08/11 07:59:40;;;;;;;5.47;4.40;;;;;;;28.26;48.26;95372.25;5061464;28;20816;-77
2023/08/11 08:02:08;;;;;;;4.70;4.30;;;;;;;28.25;47.61;95374.13;5097637;28;20445;-78
2023/08/11 08:04:35;;;;;;;6.00;4.10;;;;;;;28.23;47.92;95368.09;5097362;28;20965;-78
2023/08/11 08:07:01;;;;;;;6.67;4.00;;;;;;;27.95;47.02;95378.63;5097014;28;20852;-78
2023/08/11 08:09:28;;;;;;;5.87;4.17;;;;;;;26.91;48.89;95365.94;5097116;28;20807;-77
2023/08/11 08:11:55;;;;;;;5.53;4.03;;;;;;;26.61;50.76;95371.16;5044169;28;20440;-77
2023/08/11 08:14:23;;;;;;;8.17;4.77;;;;;;;26.80;50.96;95367.47;5096660;28;20454;-77
2023/08/11 08:16:50;;;;;;;5.23;4.20;;;;;;;26.88;51.05;95364.50;5096097;28;20440;-77
2023/08/11 08:19:18;;;;;;;4.77;3.70;;;;;;;26.96;49.85;95369.63;5096768;28;20443;-78
2023/08/11 08:21:46;;;;;;;4.40;4.00;;;;;;;27.23;49.75;95366.72;5044136;28;20479;-77
2023/08/11 08:24:15;;;;;;;4.23;3.97;;;;;;;27.39;48.60;95363.44;5096924;28;20816;-77
2023/08/11 08:26:43;;;;;;;4.47;3.83;;;;;;;27.50;47.99;95357.34;5096399;28;20579;-77
2023/08/11 08:29:09;;;;;;;4.03;3.43;;;;;;;27.67;47.60;95354.88;5096167;28;20524;-77
2023/08/11 08:31:38;;;;;;;3.73;3.43;;;;;;;27.74;45.89;95351.06;5044066;28;20444;-75
2023/08/11 08:34:05;;;;;;;4.27;3.87;;;;;;;27.72;45.85;95353.16;5096376;28;20432;-76
2023/08/11 08:36:32;;;;;;;4.43;4.07;;;;;;;27.68;45.41;95359.22;5095657;28;20458;-77
2023/08/11 08:38:58;;;;;;;4.80;3.50;;;;;;;27.72;45.94;95360.41;5096295;28;20436;-77
2023/08/11 08:41:28;;;;;;;4.93;4.00;;;;;;;27.81;46.23;95363.66;5096141;28;20440;-77
2023/08/11 08:43:56;;;;;;;5.97;4.23;;;;;;;27.91;45.47;95356.69;5095923;28;20440;-77
2023/08/11 08:46:28;;;;;;;5.17;4.67;;;;;;;27.81;45.59;95358.28;5095994;28;20483;-77
2023/08/11 08:49:08;;;;;;;5.33;4.83;;;;;;;27.60;45.25;95348.72;5096080;28;20456;-77
2023/08/11 08:51:36;;;;;;;7.43;3.70;;;;;;;27.33;45.54;95346.31;5096387;28;20464;-77
2023/08/11 08:54:03;;;;;;;5.93;4.03;;;;;;;27.51;46.72;95348.19;5044057;28;20440;-77
2023/08/11 08:56:30;;;;;;;4.50;4.10;;;;;;;27.60;46.63;95354.94;5095605;28;20482;-78
2023/08/11 08:58:57;;;;;;;5.20;3.53;;;;;;;27.59;46.26;95355.97;5095402;28;20456;-77
2023/08/11 09:01:24;;;;;;;5.87;4.07;;;;;;;27.52;45.47;95355.25;5095449;28;20922;-78
2023/08/11 09:03:51;;;;;;;11.37;4.10;;;;;;;27.26;46.08;95361.72;5095792;28;20436;-77
2023/08/11 09:06:21;;;;;;;6.17;4.03;;;;;;;27.28;46.37;95359.63;5094701;28;20515;-77
2023/08/11 09:08:48;;;;;;;4.17;3.87;;;;;;;27.39;46.38;95347.28;5042811;28;20443;-77
2023/08/11 09:11:15;;;;;;;4.80;4.17;;;;;;;27.36;46.40;95356.63;5095188;28;20440;-78
2023/08/11 09:13:44;;;;;;;4.00;3.70;;;;;;;27.20;47.28;95353.72;5095473;28;20444;-77
2023/08/11 09:16:11;;;;;;;3.63;3.33;;;;;;;27.06;47.14;95351.13;5095607;28;20439;-78
2023/08/11 09:18:40;;;;;;;4.63;3.90;;;;;;;27.04;49.39;95350.50;5095015;28;20444;-77
2023/08/11 09:21:07;;;;;;;4.40;3.50;;;;;;;27.15;45.78;95348.97;5095013;28;20483;-78
2023/08/11 09:23:36;;;;;;;7.17;3.83;;;;;;;27.11;46.24;95348.56;5095347;28;20448;-77
2023/08/11 09:26:03;;;;;;;3.73;3.43;;;;;;;26.72;45.86;95341.63;5059497;28;20489;-78
2023/08/11 09:28:30;;;;;;;4.00;3.70;;;;;;;26.58;47.17;95341.94;5094718;28;20443;-77
2023/08/11 09:30:57;;;;;;;8.37;4.47;;;;;;;26.35;46.98;95343.34;5094878;28;20440;-77
2023/08/11 09:33:25;;;;;;;4.30;3.33;;;;;;;26.27;48.66;95340.88;5094468;28;20440;-77
2023/08/11 09:35:53;;;;;;;5.23;3.70;;;;;;;26.42;48.65;95336.06;5095441;28;20443;-77
2023/08/11 09:38:20;;;;;;;4.33;3.93;;;;;;;26.41;49.02;95349.72;5095196;28;20482;-77
2023/08/11 09:40:49;;;;;;;4.27;3.97;;;;;;;26.28;48.90;95345.22;5095494;28;20432;-77
2023/08/11 09:43:15;;;;;;;4.87;3.83;;;;;;;25.89;49.87;95347.06;5095003;28;20475;-77
2023/08/11 09:45:42;;;;;;;3.87;3.57;;;;;;;25.52;50.41;95343.25;5094901;28;20447;-77
2023/08/11 09:48:09;;;;;;;3.80;3.50;;;;;;;25.37;50.53;95357.97;5094679;28;20435;-77
2023/08/11 09:50:38;;;;;;;4.43;4.03;;;;;;;24.94;51.36;95355.72;5094986;28;20467;-78
2023/08/11 09:53:06;;;;;;;5.07;4.57;;;;;;;24.97;51.26;95350.78;5094606;28;20454;-77
2023/08/11 09:55:55;;;;;;;6.00;3.67;;;;;;;25.30;51.85;95350.75;5094443;28;20459;-77
2023/08/11 09:58:24;;;;;;;4.03;3.50;;;;;;;25.50;50.75;95345.34;5094309;28;20474;-78
2023/08/11 10:00:53;;;;;;;4.70;3.93;;;;;;;25.82;50.62;95340.09;5094581;28;20478;-77
2023/08/11 10:03:26;;;;;;;6.73;3.40;;;;;;;26.05;50.39;95336.88;5094797;28;20856;-77
2023/08/11 10:05:55;;;;;;;6.37;3.40;;;;;;;26.31;49.57;95335.88;5094771;28;20448;-78
2023/08/11 10:08:25;;;;;;;4.00;3.60;;;;;;;26.61;48.18;95336.16;5094053;28;20435;-77
2023/08/11 10:10:53;;;;;;;6.60;3.90;;;;;;;26.88;50.16;95337.56;5093727;28;20432;-78
2023/08/11 10:13:23;;;;;;;3.73;3.43;;;;;;;26.39;47.91;95338.38;5094342;28;20443;-78
2023/08/11 10:15:51;;;;;;;5.23;3.30;;;;;;;26.40;49.19;95330.06;5094138;28;20450;-77
2023/08/11 10:18:19;;;;;;;5.00;4.60;;;;;;;26.55;47.51;95318.97;5094125;28;20440;-77
2023/08/11 10:20:49;;;;;;;3.50;3.30;;;;;;;26.51;47.59;95323.97;5094113;28;20439;-77
2023/08/11 10:23:17;;;;;;;6.17;3.80;;;;;;;26.61;47.56;95323.50;5094022;28;20945;-77
2023/08/11 10:25:45;;;;;;;3.80;3.50;;;;;;;26.34;48.10;95314.81;5094154;28;20436;-77
2023/08/11 10:28:13;;;;;;;3.97;3.67;;;;;;;26.25;47.59;95306.09;5094264;28;20483;-78
2023/08/11 10:30:41;;;;;;;3.70;3.13;;;;;;;26.24;47.55;95306.31;5094030;28;20445;-78
2023/08/11 10:33:09;;;;;;;5.87;3.60;;;;;;;26.07;47.58;95313.28;5093995;28;20483;-77
2023/08/11 10:35:50;;;;;;;3.57;3.37;;;;;;;26.12;47.46;95300.00;5093409;28;20447;-78
2023/08/11 10:38:24;;;;;;;3.73;3.43;;;;;;;26.19;46.85;95295.41;5093461;28;20936;-77
2023/08/11 10:40:50;;;;;;;8.33;4.00;;;;;;;26.19;46.76;95300.78;5093778;28;20439;-76
2023/08/11 10:43:28;;;;;;;4.10;3.80;;;;;;;25.96;47.62;95300.50;5093729;28;20458;-77
2023/08/11 10:45:55;;;;;;;4.07;3.67;;;;;;;25.96;49.61;95298.63;5093298;28;20942;-79
2023/08/11 10:48:23;;;;;;;6.60;3.60;;;;;;;26.00;47.79;95286.41;5041662;28;20443;-77
2023/08/11 10:50:50;;;;;;;4.80;3.73;;;;;;;26.15;48.42;95294.19;5093890;28;21003;-77
2023/08/11 10:53:19;;;;;;;4.33;3.77;;;;;;;26.15;49.63;95294.19;5094010;28;20444;-77
2023/08/11 10:56:01;;;;;;;4.20;3.80;;;;;;;26.02;50.13;95294.25;5058718;28;20468;-77
2023/08/11 10:58:30;;;;;;;3.83;3.50;;;;;;;25.99;49.25;95289.31;5093527;28;20895;-77
2023/08/11 11:00:58;;;;;;;5.67;3.43;;;;;;;25.91;47.37;95290.38;5093889;28;20938;-77
2023/08/11 11:03:25;;;;;;;5.63;3.50;;;;;;;26.08;48.24;95288.84;5093670;28;20806;-78
2023/08/11 11:05:52;;;;;;;4.00;3.70;;;;;;;26.12;50.26;95290.06;5094073;28;20951;-78
2023/08/11 11:08:19;;;;;;;4.03;3.50;;;;;;;26.19;49.84;95292.72;5093904;28;20487;-78
2023/08/11 11:10:46;;;;;;;3.50;3.20;;;;;;;26.35;48.75;95284.16;5093671;28;20448;-77
2023/08/11 11:13:12;;;;;;;4.10;3.80;;;;;;;26.43;47.33;95297.34;5094120;28;20444;-77
2023/08/11 11:15:41;;;;;;;4.67;4.27;;;;;;;26.17;46.10;95284.03;5092938;28;20440;-78
2023/08/11 11:18:08;;;;;;;4.77;3.57;;;;;;;26.32;47.65;95289.13;5093248;28;20431;-77
2023/08/11 11:20:35;;;;;;;9.83;4.10;;;;;;;26.55;47.52;95290.19;5093359;28;20436;-77
2023/08/11 11:23:02;;;;;;;4.43;4.13;;;;;;;26.68;47.15;95285.75;5093497;28;20493;-78
2023/08/11 11:25:29;;;;;;;3.97;3.67;;;;;;;26.67;45.15;95284.09;5093431;28;20914;-77
2023/08/11 11:27:56;;;;;;;3.80;3.50;;;;;;;26.74;45.80;95284.88;5041516;28;20981;-77
2023/08/11 11:30:23;;;;;;;3.80;3.50;;;;;;;26.73;47.09;95277.84;5093453;28;20451;-78
2023/08/11 11:32:51;;;;;;;4.20;3.90;;;;;;;26.57;46.20;95276.50;5093489;28;20440;-78
2023/08/11 11:35:18;;;;;;;3.50;3.20;;;;;;;26.62;45.69;95278.56;5093335;28;20485;-77
2023/08/11 11:37:45;;;;;;;3.50;3.10;;;;;;;26.63;45.50;95280.22;5092956;28;20934;-77
2023/08/11 11:40:13;;;;;;;3.80;3.40;;;;;;;26.60;43.73;95281.47;5092952;28;20524;-77
2023/08/11 11:42:41;;;;;;;4.40;4.10;;;;;;;26.41;47.48;95267.13;5093434;28;20518;-77
2023/08/11 11:45:10;;;;;;;6.20;4.57;;;;;;;26.45;49.72;95271.03;5093618;28;20851;-77
2023/08/11 11:47:37;;;;;;;4.70;4.30;;;;;;;26.62;51.02;95273.19;5093494;28;20515;-76
2023/08/11 11:50:08;;;;;;;8.33;4.17;;;;;;;26.55;50.24;95271.34;5093328;28;20999;-77
2023/08/11 11:52:36;;;;;;;8.70;4.33;;;;;;;26.06;52.36;95268.59;5097124;28;20835;-77